Terminal Aerodrome Forecast
Issued by NWS Jackson, MS

Home | Current Version | Previous Version | Text Only | Print | Product List | Glossary On
Versions: 1 2 3 4 5 6 7 8 9 10 11 12
000
FTUS44 KMEG 270526
TAFTUP
TAF
KTUP 270526Z 2706/2806 16007KT P6SM BKN250
      TEMPO 2710/2714 BKN025
     FM271500 20012G20KT P6SM OVC100
     FM280000 18007KT P6SM BKN250=

USA.gov is the U.S. government's official web portal to all federal, state and local government web resources and services.